Time;durP1;ratioP1;P1;durP2;ratioP2;P2;SDS_P1;SDS_P2;PMS_P1;PMS_P2;Temp;Humidity;BMP_temperature;BMP_pressure;BME280_temperature;BME280_humidity;BME280_pressure;Samples;Min_cycle;Max_cycle;Signal;HPM_P1;HPM_P2
2021/06/22 00:00:55;;;;;;;14.95;10.98;;;;;;;18.43;70.27;96752.69;5068796;28;20079;-78
2021/06/22 00:03:20;;;;;;;13.73;11.13;;;;;;;18.49;70.03;96751.47;5054641;28;20115;-78
2021/06/22 00:05:48;;;;;;;14.18;11.63;;;;;;;18.42;70.14;96747.72;5089646;28;20129;-78
2021/06/22 00:08:13;;;;;;;13.50;10.85;;;;;;;18.47;69.83;96753.66;5089601;28;20032;-78
2021/06/22 00:10:39;;;;;;;12.98;10.50;;;;;;;18.43;70.08;96757.19;5048960;28;20039;-78
2021/06/22 00:13:04;;;;;;;13.77;11.30;;;;;;;18.29;70.41;96754.66;5031527;28;20024;-78
2021/06/22 00:15:30;;;;;;;14.25;11.30;;;;;;;18.20;70.40;96748.56;5083091;28;20418;-78
2021/06/22 00:17:56;;;;;;;14.77;11.93;;;;;;;18.42;69.81;96747.72;5050960;28;20527;-78
2021/06/22 00:20:23;;;;;;;14.20;11.68;;;;;;;18.39;69.96;96743.84;5037753;28;20032;-78
2021/06/22 00:22:49;;;;;;;15.55;12.00;;;;;;;18.65;69.32;96748.41;5070498;28;20032;-79
2021/06/22 00:25:16;;;;;;;14.10;11.25;;;;;;;18.38;69.08;96746.78;5066405;28;20035;-78
2021/06/22 00:27:41;;;;;;;15.55;11.80;;;;;;;18.53;69.52;96756.91;5070479;28;20040;-78
2021/06/22 00:30:09;;;;;;;15.95;11.82;;;;;;;18.53;69.14;96755.03;5066719;28;20047;-78
2021/06/22 00:32:34;;;;;;;14.98;11.30;;;;;;;18.45;69.21;96747.88;5053053;28;20029;-78
2021/06/22 00:35:00;;;;;;;14.93;11.93;;;;;;;18.44;69.46;96740.28;5053122;28;20559;-78
2021/06/22 00:37:25;;;;;;;15.27;11.52;;;;;;;18.03;70.37;96744.78;5058163;28;20036;-78
2021/06/22 00:39:51;;;;;;;16.27;11.10;;;;;;;18.17;70.08;96730.75;5087374;28;20067;-79
2021/06/22 00:42:16;;;;;;;13.32;10.70;;;;;;;18.02;70.26;96734.56;5035425;28;20078;-78
2021/06/22 00:44:56;;;;;;;14.18;11.32;;;;;;;18.08;70.42;96736.75;5070773;28;20036;-79
2021/06/22 00:47:21;;;;;;;16.40;12.10;;;;;;;18.07;70.27;96737.81;5070809;28;20089;-79
2021/06/22 00:49:48;;;;;;;15.60;11.85;;;;;;;18.00;70.01;96744.63;5062865;28;20434;-79
2021/06/22 00:52:16;;;;;;;16.35;12.07;;;;;;;18.26;69.76;96726.28;5053180;28;20032;-79
2021/06/22 00:54:42;;;;;;;15.73;12.45;;;;;;;18.39;69.44;96728.03;5072760;28;20063;-79
2021/06/22 00:57:08;;;;;;;16.65;12.75;;;;;;;18.51;69.02;96724.81;5086859;28;20064;-79
2021/06/22 00:59:34;;;;;;;18.10;12.88;;;;;;;18.60;68.83;96727.47;5065903;28;20032;-79
2021/06/22 01:02:04;;;;;;;17.02;13.00;;;;;;;18.55;68.79;96724.97;5056003;28;20044;-79
2021/06/22 01:04:30;;;;;;;16.55;12.10;;;;;;;18.59;68.76;96718.00;5053610;28;20107;-79
2021/06/22 01:06:56;;;;;;;15.70;11.82;;;;;;;18.69;68.56;96725.59;5068669;28;20115;-79
2021/06/22 01:09:22;;;;;;;16.60;12.43;;;;;;;18.65;68.89;96720.19;5074110;28;20032;-79
2021/06/22 01:11:47;;;;;;;15.45;11.70;;;;;;;18.62;68.69;96720.03;5063696;28;20047;-79
2021/06/22 01:14:13;;;;;;;15.70;11.50;;;;;;;18.63;68.54;96714.44;5081545;28;20395;-79
2021/06/22 01:16:38;;;;;;;12.43;10.30;;;;;;;18.67;68.46;96722.50;5067700;28;20047;-79
2021/06/22 01:19:06;;;;;;;13.63;11.20;;;;;;;18.60;68.01;96716.91;5074381;28;20099;-79
2021/06/22 01:21:36;;;;;;;14.57;11.43;;;;;;;18.58;68.31;96719.09;5087212;28;20032;-79
2021/06/22 01:24:13;;;;;;;12.82;10.85;;;;;;;18.55;68.52;96722.34;5050977;28;20024;-79
2021/06/22 01:26:44;;;;;;;13.80;10.55;;;;;;;18.67;67.88;96711.97;5054925;28;20179;-79
2021/06/22 01:29:09;;;;;;;14.43;11.45;;;;;;;18.76;68.24;96711.97;5073437;28;20023;-79
2021/06/22 01:31:35;;;;;;;14.68;10.82;;;;;;;18.72;67.87;96711.81;5073310;28;20479;-79
2021/06/22 01:34:01;;;;;;;11.50;9.57;;;;;;;18.82;67.91;96716.81;5054776;28;20386;-79
2021/06/22 01:36:29;;;;;;;10.60;8.60;;;;;;;18.88;67.45;96722.72;5070860;28;20062;-79
2021/06/22 01:38:54;;;;;;;13.43;10.10;;;;;;;18.73;67.79;96726.56;5054186;28;20032;-79
2021/06/22 01:41:20;;;;;;;12.25;10.68;;;;;;;18.72;68.08;96725.00;5070183;28;20025;-79
2021/06/22 01:43:45;;;;;;;11.70;9.93;;;;;;;18.61;67.97;96723.72;5090163;28;20432;-78
2021/06/22 01:46:11;;;;;;;13.23;10.68;;;;;;;18.34;68.56;96725.53;5070503;28;20077;-78
2021/06/22 01:48:36;;;;;;;12.43;9.65;;;;;;;18.21;69.16;96715.88;5090496;28;20539;-78
2021/06/22 01:51:02;;;;;;;13.98;10.38;;;;;;;18.30;69.08;96717.47;5072967;28;20375;-78
2021/06/22 01:53:27;;;;;;;14.05;10.43;;;;;;;18.41;68.93;96728.50;5073191;28;20153;-78
2021/06/22 01:55:52;;;;;;;14.32;11.13;;;;;;;18.49;69.08;96722.47;5053188;28;20136;-78
2021/06/22 01:58:20;;;;;;;15.75;12.23;;;;;;;18.42;69.15;96721.34;5055176;28;20063;-78
2021/06/22 02:00:49;;;;;;;14.38;10.55;;;;;;;18.39;69.02;96725.41;5053234;28;20307;-79
2021/06/22 02:03:16;;;;;;;14.95;11.43;;;;;;;18.42;68.56;96726.63;5071713;28;20249;-78
2021/06/22 02:05:42;;;;;;;15.85;11.80;;;;;;;18.26;69.15;96732.31;5072761;28;20563;-78
2021/06/22 02:08:09;;;;;;;16.20;11.60;;;;;;;18.33;69.23;96723.97;5066199;28;20047;-78
2021/06/22 02:10:35;;;;;;;15.68;11.07;;;;;;;18.43;68.67;96728.97;5056516;28;20036;-78
2021/06/22 02:13:00;;;;;;;16.15;10.80;;;;;;;18.43;68.91;96733.47;5039421;28;20186;-79
2021/06/22 02:15:26;;;;;;;18.13;11.13;;;;;;;18.47;68.69;96729.94;5089579;28;20035;-79
2021/06/22 02:17:51;;;;;;;16.85;12.32;;;;;;;18.44;68.77;96714.72;5072736;28;20335;-78
2021/06/22 02:20:17;;;;;;;16.20;11.50;;;;;;;18.19;68.83;96713.53;5039699;28;20027;-79
2021/06/22 02:22:42;;;;;;;14.52;10.98;;;;;;;18.08;69.65;96697.22;5073036;28;20028;-78
2021/06/22 02:25:09;;;;;;;15.30;11.40;;;;;;;18.23;69.19;96697.91;5070981;28;20513;-79
2021/06/22 02:27:35;;;;;;;17.15;11.05;;;;;;;17.87;69.93;96714.63;5073434;28;20024;-79
2021/06/22 02:30:05;;;;;;;16.55;11.13;;;;;;;18.08;69.28;96709.63;5068470;28;20390;-78
2021/06/22 02:32:31;;;;;;;16.23;11.32;;;;;;;18.22;69.33;96704.25;5072535;28;20405;-78
2021/06/22 02:34:57;;;;;;;17.42;10.88;;;;;;;17.91;69.62;96703.22;5089507;28;20111;-79
2021/06/22 02:37:22;;;;;;;14.35;10.13;;;;;;;17.81;70.08;96708.72;5071128;28;20108;-79
2021/06/22 02:39:48;;;;;;;15.75;11.48;;;;;;;17.92;69.59;96706.59;5089744;28;20057;-78
2021/06/22 02:42:13;;;;;;;17.42;11.20;;;;;;;17.96;69.53;96710.22;5038624;28;20024;-79
2021/06/22 02:44:39;;;;;;;16.75;11.38;;;;;;;17.99;69.00;96716.72;5036625;28;20093;-80
2021/06/22 02:47:05;;;;;;;17.48;11.60;;;;;;;18.06;69.06;96702.03;5069404;28;20036;-79
2021/06/22 02:49:30;;;;;;;18.27;11.77;;;;;;;17.98;68.88;96710.69;5090379;28;20028;-79
2021/06/22 02:51:56;;;;;;;15.50;10.52;;;;;;;17.78;69.09;96710.06;5088755;28;20633;-78
2021/06/22 02:54:22;;;;;;;14.35;10.82;;;;;;;17.79;69.00;96706.38;5035407;28;20040;-79
2021/06/22 02:56:47;;;;;;;14.65;9.82;;;;;;;17.70;68.99;96713.47;5071984;28;20036;-78
2021/06/22 02:59:13;;;;;;;14.63;9.98;;;;;;;17.71;69.15;96709.72;5086622;28;20569;-79
2021/06/22 03:01:38;;;;;;;12.07;8.80;;;;;;;17.64;68.80;96714.66;5089569;28;20034;-79
2021/06/22 03:04:04;;;;;;;13.60;9.10;;;;;;;17.58;69.29;96710.56;5039047;28;20386;-79
2021/06/22 03:06:29;;;;;;;13.52;9.68;;;;;;;17.47;69.45;96698.75;5039579;28;20115;-78
2021/06/22 03:08:54;;;;;;;13.93;10.18;;;;;;;17.67;69.44;96706.16;5070162;28;20024;-78
2021/06/22 03:11:20;;;;;;;14.70;10.45;;;;;;;17.52;69.47;96698.63;5062248;28;20032;-78
2021/06/22 03:13:45;;;;;;;14.90;9.98;;;;;;;17.35;69.84;96686.91;5067362;28;20036;-79
2021/06/22 03:16:10;;;;;;;15.90;10.23;;;;;;;17.19;70.29;96693.63;5086241;28;20119;-79
2021/06/22 03:18:36;;;;;;;14.75;10.38;;;;;;;17.26;70.21;96693.97;5058750;28;20458;-79
2021/06/22 03:21:02;;;;;;;17.10;10.70;;;;;;;17.21;70.31;96694.09;5088927;28;20043;-78
2021/06/22 03:23:27;;;;;;;15.38;10.23;;;;;;;17.34;70.24;96709.06;5089483;28;20036;-78
2021/06/22 03:25:52;;;;;;;16.67;11.55;;;;;;;17.07;70.59;96702.03;5058525;28;20048;-79
2021/06/22 03:28:18;;;;;;;16.67;10.27;;;;;;;16.84;71.30;96715.16;5066828;28;20032;-78
2021/06/22 03:30:44;;;;;;;18.17;11.68;;;;;;;16.69;71.70;96719.91;5071387;28;20497;-78
2021/06/22 03:33:10;;;;;;;16.60;11.05;;;;;;;16.72;71.84;96728.00;5055211;28;20024;-79
2021/06/22 03:35:36;;;;;;;17.50;11.98;;;;;;;16.77;71.52;96720.00;5088791;28;20028;-79
2021/06/22 03:38:01;;;;;;;18.10;11.48;;;;;;;16.89;71.41;96735.28;5055131;28;20168;-79
2021/06/22 03:40:27;;;;;;;18.13;11.05;;;;;;;17.19;70.24;96727.81;5088739;28;20078;-78
2021/06/22 03:42:52;;;;;;;16.27;11.57;;;;;;;16.95;70.96;96726.22;5071872;28;20035;-78
2021/06/22 03:45:18;;;;;;;17.25;11.57;;;;;;;17.20;70.40;96721.47;5071672;28;20390;-79
2021/06/22 03:47:43;;;;;;;16.73;10.20;;;;;;;17.17;70.20;96732.59;5052003;28;20446;-80
2021/06/22 03:50:09;;;;;;;17.05;11.27;;;;;;;17.29;69.62;96735.50;5070400;28;20103;-79
2021/06/22 03:52:35;;;;;;;15.23;9.98;;;;;;;17.18;69.48;96729.66;5018615;28;20024;-78
2021/06/22 03:55:01;;;;;;;12.40;9.13;;;;;;;17.01;70.00;96740.81;5051447;28;20036;-78
2021/06/22 03:57:26;;;;;;;13.70;8.63;;;;;;;17.04;69.93;96739.47;5049572;28;20043;-78
2021/06/22 03:59:52;;;;;;;15.88;9.07;;;;;;;16.99;70.23;96750.84;5024719;28;20475;-78
2021/06/22 04:02:18;;;;;;;14.23;9.38;;;;;;;17.13;69.90;96750.06;5033990;28;20055;-79
2021/06/22 04:04:44;;;;;;;13.48;8.82;;;;;;;17.19;69.78;96751.50;5068677;28;20160;-78
2021/06/22 04:07:09;;;;;;;13.52;9.00;;;;;;;17.08;70.16;96760.69;5050877;28;20497;-78
2021/06/22 04:09:34;;;;;;;11.88;8.35;;;;;;;17.14;69.63;96749.75;5051481;28;20032;-78
2021/06/22 04:12:00;;;;;;;12.85;7.85;;;;;;;17.09;69.97;96759.63;5054059;28;20115;-78
2021/06/22 04:14:26;;;;;;;12.90;8.57;;;;;;;17.07;69.90;96757.28;5037089;28;20027;-78
2021/06/22 04:16:51;;;;;;;14.43;8.40;;;;;;;17.00;70.13;96759.53;5053396;28;20438;-79
2021/06/22 04:19:17;;;;;;;12.70;8.15;;;;;;;17.13;69.89;96773.72;5087858;28;20056;-78
2021/06/22 04:21:43;;;;;;;13.60;8.43;;;;;;;16.97;70.48;96776.69;5070832;28;20032;-78
2021/06/22 04:24:08;;;;;;;13.80;8.43;;;;;;;16.74;71.08;96773.19;5024121;28;20387;-79
2021/06/22 04:26:36;;;;;;;15.65;9.77;;;;;;;16.70;71.47;96766.19;5069667;28;20032;-79
2021/06/22 04:29:02;;;;;;;17.10;10.23;;;;;;;16.64;71.46;96768.91;5040428;28;20471;-78
2021/06/22 04:31:27;;;;;;;11.25;8.50;;;;;;;16.82;71.22;96771.72;5036561;28;20453;-78
2021/06/22 04:33:53;;;;;;;13.73;9.52;;;;;;;16.63;71.66;96774.44;5053974;28;20043;-78
2021/06/22 04:36:18;;;;;;;13.18;9.35;;;;;;;16.61;71.28;96782.63;5037333;28;20046;-77
2021/06/22 04:38:44;;;;;;;15.07;10.68;;;;;;;16.88;70.70;96790.81;5053985;28;20063;-78
2021/06/22 04:41:09;;;;;;;13.55;9.15;;;;;;;17.15;70.23;96790.78;5053859;28;20020;-78
2021/06/22 04:43:34;;;;;;;14.30;8.98;;;;;;;17.25;69.92;96794.25;5087898;28;20036;-79
2021/06/22 04:46:00;;;;;;;12.50;8.85;;;;;;;17.25;69.35;96795.03;5053783;28;20313;-78
2021/06/22 04:48:25;;;;;;;10.60;7.82;;;;;;;17.21;69.15;96800.09;5067397;28;20033;-78
2021/06/22 04:50:53;;;;;;;11.48;8.18;;;;;;;17.14;69.56;96807.63;5052027;28;20035;-78
2021/06/22 04:53:19;;;;;;;10.25;7.45;;;;;;;16.68;70.51;96800.63;5054322;28;20092;-78
2021/06/22 04:55:45;;;;;;;8.93;6.75;;;;;;;16.73;70.17;96797.13;5070617;28;20028;-79
2021/06/22 04:58:10;;;;;;;11.32;7.70;;;;;;;16.73;70.59;96800.53;5070377;28;20032;-79
2021/06/22 05:00:36;;;;;;;9.70;7.43;;;;;;;17.06;70.10;96786.50;5067093;28;20028;-78
2021/06/22 05:03:01;;;;;;;9.43;7.25;;;;;;;16.71;70.52;96783.50;5052746;28;20039;-79
2021/06/22 05:05:27;;;;;;;10.40;7.82;;;;;;;16.78;70.75;96782.03;5053328;28;20028;-78
2021/06/22 05:07:52;;;;;;;11.43;7.80;;;;;;;16.77;70.60;96777.06;5047135;28;20039;-79
2021/06/22 05:10:18;;;;;;;11.05;7.63;;;;;;;16.78;70.55;96782.03;5064401;28;20096;-78
2021/06/22 05:12:45;;;;;;;8.85;7.18;;;;;;;16.61;70.40;96784.47;5066960;28;20043;-78
2021/06/22 05:15:12;;;;;;;11.38;6.75;;;;;;;16.70;70.69;96789.84;5045588;28;20039;-78
2021/06/22 05:17:37;;;;;;;10.10;6.40;;;;;;;16.66;70.07;96784.38;5071698;28;20812;-78
2021/06/22 05:20:05;;;;;;;8.30;6.10;;;;;;;16.46;71.18;96783.69;5069929;28;20032;-79
2021/06/22 05:22:30;;;;;;;8.38;6.22;;;;;;;16.81;70.55;96783.28;5071021;28;20035;-78
2021/06/22 05:24:56;;;;;;;8.15;6.07;;;;;;;16.80;70.46;96779.13;5071712;28;20032;-77
2021/06/22 05:27:21;;;;;;;8.27;6.40;;;;;;;16.84;70.49;96773.00;5072143;28;20052;-78
2021/06/22 05:29:46;;;;;;;7.63;6.28;;;;;;;16.71;70.75;96780.84;5069448;28;20029;-79
2021/06/22 05:32:12;;;;;;;8.18;7.13;;;;;;;16.70;71.19;96781.94;5058240;28;20113;-78
2021/06/22 05:34:37;;;;;;;7.40;5.95;;;;;;;17.18;69.87;96794.66;5082225;28;20028;-78
2021/06/22 05:37:03;;;;;;;8.15;6.47;;;;;;;17.38;69.75;96785.56;5083778;28;20031;-78
2021/06/22 05:39:28;;;;;;;7.40;5.78;;;;;;;17.47;68.99;96796.91;5072148;28;20048;-78
2021/06/22 05:41:53;;;;;;;6.47;5.63;;;;;;;17.50;69.04;96804.22;5072846;28;20086;-78
2021/06/22 05:44:19;;;;;;;7.25;5.30;;;;;;;17.39;69.70;96802.88;5093181;28;20116;-79
2021/06/22 05:46:45;;;;;;;6.63;5.03;;;;;;;17.63;68.85;96796.56;5058064;28;20371;-79
2021/06/22 05:49:10;;;;;;;6.43;4.43;;;;;;;17.38;68.82;96791.59;5093511;28;20500;-80
2021/06/22 05:51:36;;;;;;;5.35;4.47;;;;;;;17.62;68.73;96798.44;5051605;28;20032;-79
2021/06/22 05:54:03;;;;;;;5.53;4.35;;;;;;;17.81;68.05;96798.25;5058529;28;20036;-77
2021/06/22 05:56:28;;;;;;;5.13;4.63;;;;;;;17.74;67.52;96803.94;5072395;28;20032;-79
2021/06/22 05:58:54;;;;;;;4.20;3.80;;;;;;;17.50;67.65;96798.94;5075248;28;20030;-79
2021/06/22 06:01:19;;;;;;;4.40;3.80;;;;;;;17.66;68.05;96804.63;5088794;28;20404;-80
2021/06/22 06:03:44;;;;;;;5.10;4.20;;;;;;;17.84;67.89;96810.00;5070823;28;20047;-79
2021/06/22 06:06:10;;;;;;;5.53;3.92;;;;;;;17.66;67.26;96807.28;5074993;28;20476;-79
2021/06/22 06:08:36;;;;;;;5.10;4.13;;;;;;;17.60;67.52;96826.91;5058634;28;20382;-78
2021/06/22 06:11:03;;;;;;;4.22;3.83;;;;;;;17.32;67.88;96826.19;5074770;28;20024;-78
2021/06/22 06:13:33;;;;;;;4.30;3.90;;;;;;;17.12;68.23;96822.13;5075134;28;20058;-79
2021/06/22 06:15:59;;;;;;;4.18;3.78;;;;;;;17.45;68.38;96824.63;5057020;28;20609;-79
2021/06/22 06:18:25;;;;;;;4.15;3.72;;;;;;;17.83;67.54;96829.56;5091629;28;20028;-78
2021/06/22 06:20:51;;;;;;;4.63;4.00;;;;;;;17.94;67.36;96833.50;5074608;28;20060;-78
2021/06/22 06:23:17;;;;;;;4.78;4.10;;;;;;;17.64;66.83;96835.75;5068011;28;20028;-78
2021/06/22 06:25:44;;;;;;;5.68;3.60;;;;;;;17.81;66.92;96835.13;5056171;28;20040;-79
2021/06/22 06:28:15;;;;;;;3.97;3.58;;;;;;;17.60;67.77;96829.53;5055494;28;20540;-79
2021/06/22 06:30:40;;;;;;;4.38;3.75;;;;;;;17.75;67.75;96831.03;5026879;28;20031;-78
2021/06/22 06:33:06;;;;;;;4.47;3.90;;;;;;;17.71;67.92;96822.94;5049882;28;20379;-78
2021/06/22 06:35:31;;;;;;;4.28;3.35;;;;;;;18.10;67.20;96832.06;5074771;28;20044;-78
2021/06/22 06:37:57;;;;;;;3.50;3.10;;;;;;;18.19;66.87;96845.28;5064887;28;20020;-79
2021/06/22 06:40:22;;;;;;;4.45;4.05;;;;;;;18.11;66.77;96846.00;5070346;28;20406;-78
2021/06/22 06:42:48;;;;;;;4.50;4.07;;;;;;;18.12;66.20;96847.59;5055855;28;20040;-78
2021/06/22 06:45:16;;;;;;;3.53;3.22;;;;;;;18.01;66.80;96844.44;5072370;28;20115;-78
2021/06/22 06:47:41;;;;;;;5.00;4.35;;;;;;;18.24;66.60;96850.44;5069153;28;20024;-78
2021/06/22 06:50:07;;;;;;;4.80;4.20;;;;;;;18.00;66.57;96842.84;5070668;28;20028;-78
2021/06/22 06:52:33;;;;;;;5.03;4.57;;;;;;;18.06;66.58;96851.41;5072808;28;20108;-79
2021/06/22 06:54:58;;;;;;;4.75;4.20;;;;;;;17.82;66.70;96860.38;5057353;28;20522;-78
2021/06/22 06:57:24;;;;;;;5.30;4.80;;;;;;;17.83;66.71;96869.81;5090561;28;20028;-78
2021/06/22 06:59:49;;;;;;;4.35;3.95;;;;;;;18.02;66.15;96877.56;5056555;28;20023;-78
2021/06/22 07:02:15;;;;;;;4.78;4.13;;;;;;;18.24;65.48;96868.13;5069344;28;20024;-78
2021/06/22 07:04:40;;;;;;;5.07;4.57;;;;;;;18.04;66.63;96859.59;5053721;28;20029;-78
2021/06/22 07:07:06;;;;;;;4.30;3.90;;;;;;;17.81;67.51;96855.41;5054706;28;20035;-78
2021/06/22 07:09:32;;;;;;;4.20;3.90;;;;;;;17.79;67.44;96845.94;5056858;28;20020;-79
2021/06/22 07:11:57;;;;;;;4.72;4.18;;;;;;;17.79;67.85;96853.06;5043337;28;20115;-79
2021/06/22 07:14:24;;;;;;;4.55;4.15;;;;;;;17.63;68.54;96855.25;5073358;28;20080;-79
2021/06/22 07:16:49;;;;;;;4.38;3.97;;;;;;;17.82;68.08;96857.75;5073459;28;20107;-79
2021/06/22 07:19:15;;;;;;;4.70;4.30;;;;;;;17.62;68.48;96864.25;5056912;28;20111;-79
2021/06/22 07:21:41;;;;;;;4.78;4.28;;;;;;;17.82;68.37;96859.59;5048264;28;20048;-78
2021/06/22 07:24:07;;;;;;;4.90;4.35;;;;;;;17.85;68.16;96867.66;5090129;28;20383;-79
2021/06/22 07:26:36;;;;;;;5.63;4.40;;;;;;;17.78;68.05;96875.97;5038145;28;20028;-79
2021/06/22 07:29:02;;;;;;;4.32;3.92;;;;;;;18.01;67.68;96876.03;5054387;28;20032;-78
2021/06/22 07:31:30;;;;;;;4.40;4.00;;;;;;;17.97;67.72;96885.59;5089655;28;20028;-78
2021/06/22 07:33:55;;;;;;;5.13;4.57;;;;;;;18.06;67.37;96877.75;5070593;28;20037;-79
2021/06/22 07:36:21;;;;;;;4.85;4.45;;;;;;;18.11;67.30;96880.28;5072923;28;20050;-78
2021/06/22 07:38:46;;;;;;;5.30;4.38;;;;;;;17.95;67.58;96887.75;5052892;28;20032;-79
2021/06/22 07:41:12;;;;;;;5.03;4.53;;;;;;;18.00;68.01;96885.00;5072846;28;20024;-78
2021/06/22 07:43:39;;;;;;;4.85;4.45;;;;;;;18.02;67.87;96893.38;5072715;28;20043;-78
2021/06/22 07:46:05;;;;;;;5.40;4.50;;;;;;;18.22;67.53;96897.41;5072896;28;20043;-78
2021/06/22 07:48:30;;;;;;;4.88;4.15;;;;;;;18.23;67.58;96895.53;5090994;28;20032;-78
2021/06/22 07:50:57;;;;;;;4.80;4.40;;;;;;;18.18;67.64;96896.47;5072263;28;20040;-78
2021/06/22 07:53:22;;;;;;;5.50;5.07;;;;;;;18.00;67.47;96895.53;5065840;28;20028;-78
2021/06/22 07:55:48;;;;;;;5.03;4.63;;;;;;;18.24;67.79;96889.19;5069224;28;20032;-78
2021/06/22 07:58:13;;;;;;;4.90;4.38;;;;;;;18.29;67.10;96896.97;5071304;28;20028;-79
2021/06/22 08:00:42;;;;;;;5.30;4.75;;;;;;;18.20;67.64;96901.41;5072250;28;20161;-79
2021/06/22 08:03:27;;;;;;;4.63;4.20;;;;;;;18.10;67.99;96899.81;5056253;28;20074;-79
2021/06/22 08:05:53;;;;;;;5.60;5.05;;;;;;;18.20;67.71;96909.31;5059002;28;20039;-78
2021/06/22 08:08:20;;;;;;;5.30;4.80;;;;;;;18.40;67.69;96908.03;5055771;28;20035;-79
2021/06/22 08:10:48;;;;;;;4.78;4.38;;;;;;;18.43;67.27;96896.91;5080444;28;20033;-78
2021/06/22 08:13:13;;;;;;;4.53;4.15;;;;;;;18.66;66.61;96900.25;5072622;28;20025;-79
2021/06/22 08:15:39;;;;;;;4.22;3.90;;;;;;;18.69;66.48;96900.44;5069615;28;20071;-78
2021/06/22 08:18:07;;;;;;;5.38;4.43;;;;;;;18.72;66.63;96896.44;5055428;28;20463;-79
2021/06/22 08:20:34;;;;;;;5.13;4.72;;;;;;;18.78;66.55;96899.69;5035486;28;20035;-78
2021/06/22 08:22:59;;;;;;;4.50;4.07;;;;;;;18.71;66.29;96898.28;5071249;28;20506;-79
2021/06/22 08:25:26;;;;;;;4.40;4.00;;;;;;;18.52;66.65;96901.16;5052427;28;20033;-78
2021/06/22 08:27:55;;;;;;;4.45;4.05;;;;;;;18.66;66.36;96892.34;5050887;28;20535;-78
2021/06/22 08:30:22;;;;;;;4.38;4.07;;;;;;;18.69;66.87;96889.88;5038239;28;20028;-78
2021/06/22 08:32:48;;;;;;;4.63;4.20;;;;;;;18.65;66.54;96904.78;5089146;28;20031;-78
2021/06/22 08:35:15;;;;;;;4.55;4.22;;;;;;;18.50;66.85;96916.47;5037250;28;20374;-78
2021/06/22 08:37:42;;;;;;;5.63;5.13;;;;;;;18.36;67.22;96918.41;5031434;28;20028;-78
2021/06/22 08:40:12;;;;;;;5.55;4.93;;;;;;;18.44;67.11;96919.53;5054108;28;20686;-79
2021/06/22 08:42:39;;;;;;;5.80;5.30;;;;;;;18.38;66.84;96915.47;5055675;28;20028;-78
2021/06/22 08:45:07;;;;;;;6.80;6.20;;;;;;;18.30;67.05;96932.78;5072350;28;20353;-79
2021/06/22 08:47:33;;;;;;;6.10;5.60;;;;;;;18.63;66.83;96924.63;5089090;28;20440;-79
2021/06/22 08:49:59;;;;;;;5.93;5.45;;;;;;;18.66;66.90;96916.88;5052457;28;20043;-79
2021/06/22 08:52:30;;;;;;;6.10;5.60;;;;;;;18.51;66.90;96920.69;5069713;28;20036;-78
2021/06/22 08:54:55;;;;;;;6.40;5.82;;;;;;;18.68;66.52;96925.25;5055437;28;20031;-78
2021/06/22 08:57:23;;;;;;;5.63;5.13;;;;;;;18.49;67.13;96920.22;5043845;28;20042;-78
2021/06/22 08:59:50;;;;;;;6.55;5.95;;;;;;;18.61;66.96;96918.84;5027196;28;20116;-79
2021/06/22 09:02:15;;;;;;;5.90;5.28;;;;;;;18.66;67.14;96908.19;5060967;28;20036;-79
2021/06/22 09:04:41;;;;;;;5.50;4.53;;;;;;;18.80;65.93;96913.34;5065992;28;20033;-78
2021/06/22 09:07:07;;;;;;;6.05;5.55;;;;;;;18.77;66.52;96912.13;5032801;28;20078;-78
2021/06/22 09:09:37;;;;;;;6.60;6.00;;;;;;;18.63;66.38;96922.75;5085940;28;20032;-78
2021/06/22 09:12:11;;;;;;;5.80;5.30;;;;;;;18.47;67.04;96919.72;5054949;28;20068;-79
2021/06/22 09:14:38;;;;;;;6.33;5.70;;;;;;;18.66;67.02;96918.72;5051809;28;20099;-78
2021/06/22 09:17:04;;;;;;;6.45;5.90;;;;;;;18.75;67.28;96924.84;5073717;28;20027;-78
2021/06/22 09:19:31;;;;;;;7.32;6.43;;;;;;;18.69;67.47;96929.44;5075889;28;20035;-78
2021/06/22 09:21:57;;;;;;;7.97;6.57;;;;;;;18.57;67.72;96933.72;5058562;28;20084;-78
2021/06/22 09:24:24;;;;;;;9.05;8.13;;;;;;;18.52;67.97;96932.78;5093793;28;20066;-79
2021/06/22 09:26:53;;;;;;;8.05;7.28;;;;;;;18.51;67.99;96939.13;5075550;28;20039;-78
2021/06/22 09:29:21;;;;;;;7.35;6.75;;;;;;;18.60;68.10;96935.78;5059120;28;20031;-79
2021/06/22 09:31:52;;;;;;;9.13;8.32;;;;;;;18.45;68.48;96935.06;5058561;28;20024;-79
2021/06/22 09:34:19;;;;;;;8.77;7.95;;;;;;;18.42;68.51;96937.50;5075589;28;20040;-79
2021/06/22 09:36:52;;;;;;;8.65;7.95;;;;;;;18.27;68.98;96936.03;5090180;28;20040;-78
2021/06/22 09:39:20;;;;;;;9.48;8.57;;;;;;;18.34;69.22;96941.66;5038232;28;20489;-78
2021/06/22 09:41:46;;;;;;;9.90;9.10;;;;;;;18.19;69.33;96942.78;5034642;28;20016;-78
2021/06/22 09:44:21;;;;;;;10.38;9.38;;;;;;;18.26;69.69;96945.00;5053487;28;20710;-79
2021/06/22 09:46:50;;;;;;;10.60;9.70;;;;;;;18.54;69.40;96940.38;5074646;28;20039;-79
2021/06/22 09:49:17;;;;;;;9.48;8.75;;;;;;;18.58;68.42;96938.72;5075338;28;20046;-79
2021/06/22 09:54:33;;;;;;;9.02;8.23;;;;;;;18.74;68.19;96948.88;5055428;28;20203;-78
2021/06/22 09:57:06;;;;;;;8.18;7.47;;;;;;;18.62;68.86;96946.78;5056782;28;20117;-78
2021/06/22 09:59:47;;;;;;;8.27;7.60;;;;;;;18.48;68.80;96947.63;5040686;28;20091;-78
2021/06/22 10:02:14;;;;;;;8.95;8.18;;;;;;;18.69;68.10;96947.13;5091448;28;20029;-78
2021/06/22 10:04:47;;;;;;;8.45;7.65;;;;;;;18.55;68.66;96951.72;5058260;28;20044;-79
2021/06/22 10:07:15;;;;;;;8.88;8.15;;;;;;;18.74;68.54;96957.56;5074831;28;20032;-78
2021/06/22 10:09:41;;;;;;;8.55;7.75;;;;;;;18.80;68.11;96958.19;5058380;28;20588;-78
2021/06/22 10:12:06;;;;;;;8.35;7.65;;;;;;;18.87;68.04;96962.00;5060670;28;20091;-78
2021/06/22 10:14:43;;;;;;;8.32;7.63;;;;;;;18.81;68.56;96965.81;5092929;28;20024;-78
2021/06/22 10:17:18;;;;;;;8.23;7.53;;;;;;;18.99;68.42;96976.50;5038072;28;20047;-79
2021/06/22 10:19:45;;;;;;;7.53;6.93;;;;;;;19.04;67.78;96977.13;5075527;28;20591;-78
2021/06/22 10:22:11;;;;;;;7.18;6.57;;;;;;;18.92;67.67;96969.00;5057948;28;20028;-78
2021/06/22 10:24:47;;;;;;;7.47;6.85;;;;;;;18.93;68.13;96969.78;5091219;28;20035;-78
2021/06/22 10:27:18;;;;;;;7.30;6.70;;;;;;;18.86;68.05;96971.00;5071784;28;20064;-78
2021/06/22 10:29:46;;;;;;;7.78;7.07;;;;;;;18.87;68.63;96975.19;5070463;28;20028;-79
2021/06/22 10:32:13;;;;;;;8.68;7.97;;;;;;;18.84;68.29;96988.97;5054975;28;20543;-78
2021/06/22 10:34:39;;;;;;;8.45;7.70;;;;;;;18.87;68.57;96984.97;5074135;28;20043;-78
2021/06/22 10:37:14;;;;;;;8.65;7.93;;;;;;;18.51;68.71;96976.03;5054613;28;20032;-78
2021/06/22 10:39:45;;;;;;;8.40;7.60;;;;;;;18.67;68.79;96984.34;5073428;28;20073;-79
2021/06/22 10:42:12;;;;;;;9.15;8.35;;;;;;;18.61;68.93;96990.06;5091833;28;20039;-79
2021/06/22 10:44:59;;;;;;;9.18;8.43;;;;;;;18.39;69.31;96986.34;5069275;28;20032;-78
2021/06/22 10:47:26;;;;;;;8.32;7.53;;;;;;;18.64;69.00;96992.09;5053868;28;20863;-78
2021/06/22 10:50:04;;;;;;;8.80;8.00;;;;;;;18.60;69.52;96988.50;5072050;28;20470;-78
2021/06/22 10:52:49;;;;;;;8.68;7.78;;;;;;;18.37;69.94;96980.63;5069916;28;20029;-78
2021/06/22 10:55:20;;;;;;;8.82;8.07;;;;;;;18.39;69.98;96986.34;5086916;28;20040;-79
2021/06/22 10:58:11;;;;;;;9.45;8.38;;;;;;;18.44;69.86;96980.97;5071696;28;20124;-79
2021/06/22 11:00:37;;;;;;;9.57;8.68;;;;;;;18.72;69.62;96986.09;5056684;28;20028;-78
2021/06/22 11:03:04;;;;;;;9.93;9.05;;;;;;;18.70;69.67;96985.63;5044026;28;20036;-78
2021/06/22 11:05:34;;;;;;;9.57;8.77;;;;;;;18.72;69.64;96983.47;5042180;28;20041;-78
2021/06/22 11:08:12;;;;;;;9.25;8.32;;;;;;;18.76;69.90;96984.41;5054419;28;20034;-78
2021/06/22 11:10:58;;;;;;;9.50;8.60;;;;;;;18.51;70.30;96986.59;5066338;28;20174;-78
2021/06/22 11:13:54;;;;;;;8.57;7.82;;;;;;;18.69;70.18;96986.69;5050696;28;20071;-79
2021/06/22 11:16:22;;;;;;;7.88;7.07;;;;;;;18.76;69.42;96984.41;5071346;28;20070;-78
2021/06/22 11:18:51;;;;;;;7.32;6.72;;;;;;;18.74;69.37;96975.25;5066990;28;20039;-78
2021/06/22 11:21:51;;;;;;;6.22;5.72;;;;;;;18.84;69.28;96981.06;5068825;28;20032;-78
2021/06/22 11:24:23;;;;;;;6.45;5.85;;;;;;;19.03;68.52;96977.44;5069338;28;20047;-78
2021/06/22 11:26:49;;;;;;;6.32;5.82;;;;;;;19.01;68.53;96983.03;5073382;28;20072;-78
2021/06/22 11:29:15;;;;;;;7.30;6.18;;;;;;;19.15;69.01;96982.91;5069835;28;20028;-78